sensor_id;sensor_type;location;lat;lon;timestamp;pressure;altitude;pressure_sealevel;temperature;humidity
28911;BME280;16028;42.642;23.310;2023-04-29T00:00:05;94036.75;;;7.79;69.92
28911;BME280;16028;42.642;23.310;2023-04-29T00:02:32;94045.06;;;7.73;70.24
28911;BME280;16028;42.642;23.310;2023-04-29T00:04:59;94040.09;;;7.61;71.25
28911;BME280;16028;42.642;23.310;2023-04-29T00:07:29;94040.09;;;7.61;70.76
28911;BME280;16028;42.642;23.310;2023-04-29T00:09:58;94049.09;;;7.66;70.82
28911;BME280;16028;42.642;23.310;2023-04-29T00:12:25;94037.47;;;7.51;71.37
28911;BME280;16028;42.642;23.310;2023-04-29T00:14:52;94044.53;;;7.49;71.25
28911;BME280;16028;42.642;23.310;2023-04-29T00:17:19;94046.31;;;7.49;71.48
28911;BME280;16028;42.642;23.310;2023-04-29T00:19:46;94042.00;;;7.59;72.75
28911;BME280;16028;42.642;23.310;2023-04-29T00:22:13;94051.06;;;7.53;71.94
28911;BME280;16028;42.642;23.310;2023-04-29T00:24:39;94053.00;;;7.51;72.09
28911;BME280;16028;42.642;23.310;2023-04-29T00:27:08;94048.31;;;7.45;72.79
28911;BME280;16028;42.642;23.310;2023-04-29T00:29:36;94055.41;;;7.43;72.50
28911;BME280;16028;42.642;23.310;2023-04-29T00:32:03;94052.94;;;7.41;73.02
28911;BME280;16028;42.642;23.310;2023-04-29T00:34:30;94055.47;;;7.32;72.96
28911;BME280;16028;42.642;23.310;2023-04-29T00:36:56;94058.66;;;7.24;73.51
28911;BME280;16028;42.642;23.310;2023-04-29T00:39:23;94051.63;;;7.26;72.64
28911;BME280;16028;42.642;23.310;2023-04-29T00:41:50;94055.09;;;7.36;73.01
28911;BME280;16028;42.642;23.310;2023-04-29T00:44:18;94049.47;;;7.31;72.80
28911;BME280;16028;42.642;23.310;2023-04-29T00:46:45;94045.25;;;7.30;72.69
28911;BME280;16028;42.642;23.310;2023-04-29T00:49:12;94044.44;;;7.30;73.67
28911;BME280;16028;42.642;23.310;2023-04-29T00:51:40;94039.84;;;7.33;74.05
28911;BME280;16028;42.642;23.310;2023-04-29T00:54:08;94038.44;;;7.29;73.36
28911;BME280;16028;42.642;23.310;2023-04-29T00:56:38;94028.84;;;7.20;73.14
28911;BME280;16028;42.642;23.310;2023-04-29T00:59:06;94026.06;;;7.12;72.19
28911;BME280;16028;42.642;23.310;2023-04-29T01:01:36;94022.53;;;7.13;72.03
28911;BME280;16028;42.642;23.310;2023-04-29T01:04:04;94022.28;;;7.16;72.08
28911;BME280;16028;42.642;23.310;2023-04-29T01:06:39;94018.44;;;7.11;73.30
28911;BME280;16028;42.642;23.310;2023-04-29T01:09:19;94016.44;;;7.14;72.31
28911;BME280;16028;42.642;23.310;2023-04-29T01:11:58;94012.06;;;7.15;71.77
28911;BME280;16028;42.642;23.310;2023-04-29T01:14:32;94008.69;;;7.14;72.51
28911;BME280;16028;42.642;23.310;2023-04-29T01:17:05;94002.09;;;7.10;72.64
28911;BME280;16028;42.642;23.310;2023-04-29T01:19:42;94004.22;;;7.05;72.50
28911;BME280;16028;42.642;23.310;2023-04-29T01:22:10;94000.91;;;6.93;72.43
28911;BME280;16028;42.642;23.310;2023-04-29T01:24:38;94002.63;;;7.04;72.18
28911;BME280;16028;42.642;23.310;2023-04-29T01:27:15;94005.81;;;6.97;73.12
28911;BME280;16028;42.642;23.310;2023-04-29T01:29:50;94004.19;;;6.96;72.80
28911;BME280;16028;42.642;23.310;2023-04-29T01:32:22;94006.66;;;6.97;72.32
28911;BME280;16028;42.642;23.310;2023-04-29T01:34:58;94009.91;;;6.99;72.06
28911;BME280;16028;42.642;23.310;2023-04-29T01:37:33;94011.81;;;6.97;72.80
28911;BME280;16028;42.642;23.310;2023-04-29T01:40:11;94005.84;;;6.76;74.66
28911;BME280;16028;42.642;23.310;2023-04-29T01:42:44;94006.81;;;6.64;75.58
28911;BME280;16028;42.642;23.310;2023-04-29T01:45:15;94002.59;;;6.63;75.25
28911;BME280;16028;42.642;23.310;2023-04-29T01:47:43;94002.78;;;6.71;75.18
28911;BME280;16028;42.642;23.310;2023-04-29T01:50:12;94004.22;;;6.64;75.88
28911;BME280;16028;42.642;23.310;2023-04-29T01:52:38;94004.72;;;6.58;76.92
28911;BME280;16028;42.642;23.310;2023-04-29T01:55:07;94001.19;;;6.59;76.29
28911;BME280;16028;42.642;23.310;2023-04-29T01:57:35;93997.28;;;6.64;76.37
28911;BME280;16028;42.642;23.310;2023-04-29T02:00:02;93996.59;;;6.62;76.37
28911;BME280;16028;42.642;23.310;2023-04-29T02:02:29;93996.28;;;6.56;76.65
28911;BME280;16028;42.642;23.310;2023-04-29T02:04:56;94004.16;;;6.54;76.48
28911;BME280;16028;42.642;23.310;2023-04-29T02:07:22;94000.63;;;6.55;76.11
28911;BME280;16028;42.642;23.310;2023-04-29T02:09:49;93996.59;;;6.62;75.38
28911;BME280;16028;42.642;23.310;2023-04-29T02:12:17;94000.44;;;6.47;76.54
28911;BME280;16028;42.642;23.310;2023-04-29T02:14:44;94009.47;;;6.42;76.93
28911;BME280;16028;42.642;23.310;2023-04-29T02:17:12;94005.44;;;6.28;77.98
28911;BME280;16028;42.642;23.310;2023-04-29T02:19:39;94010.44;;;6.41;77.71
28911;BME280;16028;42.642;23.310;2023-04-29T02:22:06;94010.22;;;6.32;77.51
28911;BME280;16028;42.642;23.310;2023-04-29T02:24:32;94006.94;;;6.30;77.77
28911;BME280;16028;42.642;23.310;2023-04-29T02:26:59;94005.19;;;6.31;77.83
28911;BME280;16028;42.642;23.310;2023-04-29T02:29:31;94004.13;;;6.33;77.79
28911;BME280;16028;42.642;23.310;2023-04-29T02:31:58;94000.47;;;6.36;77.45
28911;BME280;16028;42.642;23.310;2023-04-29T02:34:24;94003.44;;;6.31;77.95
28911;BME280;16028;42.642;23.310;2023-04-29T02:36:51;94000.97;;;6.30;78.13
28911;BME280;16028;42.642;23.310;2023-04-29T02:39:18;94000.13;;;6.29;77.86
28911;BME280;16028;42.642;23.310;2023-04-29T02:41:45;94005.78;;;6.34;78.01
28911;BME280;16028;42.642;23.310;2023-04-29T02:44:12;94001.31;;;6.25;78.44
28911;BME280;16028;42.642;23.310;2023-04-29T02:46:40;93996.78;;;6.18;78.51
28911;BME280;16028;42.642;23.310;2023-04-29T02:49:10;94001.22;;;6.16;79.20
28911;BME280;16028;42.642;23.310;2023-04-29T02:51:37;94001.56;;;6.22;78.66
28911;BME280;16028;42.642;23.310;2023-04-29T02:54:04;94002.97;;;6.26;77.97
28911;BME280;16028;42.642;23.310;2023-04-29T02:56:31;94015.34;;;6.12;79.04
28911;BME280;16028;42.642;23.310;2023-04-29T02:58:57;94013.59;;;6.12;78.86
28911;BME280;16028;42.642;23.310;2023-04-29T03:01:24;94025.53;;;6.13;79.10
28911;BME280;16028;42.642;23.310;2023-04-29T03:03:52;94026.69;;;6.20;79.48
28911;BME280;16028;42.642;23.310;2023-04-29T03:06:19;94028.09;;;6.13;80.05
28911;BME280;16028;42.642;23.310;2023-04-29T03:08:46;94022.00;;;6.14;79.57
28911;BME280;16028;42.642;23.310;2023-04-29T03:11:13;94023.66;;;6.15;78.53
28911;BME280;16028;42.642;23.310;2023-04-29T03:13:40;94019.09;;;6.08;78.22
28911;BME280;16028;42.642;23.310;2023-04-29T03:16:07;94020.75;;;6.09;78.86
28911;BME280;16028;42.642;23.310;2023-04-29T03:18:34;94018.75;;;6.01;79.31
28911;BME280;16028;42.642;23.310;2023-04-29T03:21:02;94020.50;;;6.01;78.91
28911;BME280;16028;42.642;23.310;2023-04-29T03:23:29;94019.81;;;5.99;79.18
28911;BME280;16028;42.642;23.310;2023-04-29T03:25:56;94025.91;;;5.98;79.44
28911;BME280;16028;42.642;23.310;2023-04-29T03:28:23;94030.25;;;5.97;79.41
28911;BME280;16028;42.642;23.310;2023-04-29T03:30:50;94033.78;;;5.96;79.57
28911;BME280;16028;42.642;23.310;2023-04-29T03:33:17;94049.16;;;5.87;81.27
28911;BME280;16028;42.642;23.310;2023-04-29T03:35:43;94045.38;;;5.79;81.65
28911;BME280;16028;42.642;23.310;2023-04-29T03:38:11;94047.19;;;5.90;81.00
28911;BME280;16028;42.642;23.310;2023-04-29T03:40:38;94056.88;;;5.75;81.87
28911;BME280;16028;42.642;23.310;2023-04-29T03:43:05;94058.28;;;5.68;82.31
28911;BME280;16028;42.642;23.310;2023-04-29T03:45:33;94055.09;;;5.65;82.67
28911;BME280;16028;42.642;23.310;2023-04-29T03:48:00;94056.28;;;5.72;82.17
28911;BME280;16028;42.642;23.310;2023-04-29T03:50:27;94055.56;;;5.81;82.76
28911;BME280;16028;42.642;23.310;2023-04-29T03:52:53;94046.66;;;5.85;82.93
28911;BME280;16028;42.642;23.310;2023-04-29T03:55:23;94044.34;;;5.93;82.74
28911;BME280;16028;42.642;23.310;2023-04-29T03:57:50;94037.31;;;5.95;82.61
28911;BME280;16028;42.642;23.310;2023-04-29T04:00:17;94045.84;;;6.07;82.52
28911;BME280;16028;42.642;23.310;2023-04-29T04:02:44;94043.84;;;6.10;82.28
28911;BME280;16028;42.642;23.310;2023-04-29T04:05:11;94052.16;;;6.14;81.89
28911;BME280;16028;42.642;23.310;2023-04-29T04:07:37;94046.53;;;6.20;82.10
28911;BME280;16028;42.642;23.310;2023-04-29T04:10:05;94046.50;;;6.31;81.48
28911;BME280;16028;42.642;23.310;2023-04-29T04:12:33;94047.78;;;6.36;80.73
28911;BME280;16028;42.642;23.310;2023-04-29T04:15:00;94049.44;;;6.37;80.72
28911;BME280;16028;42.642;23.310;2023-04-29T04:17:28;94050.34;;;6.48;80.81
28911;BME280;16028;42.642;23.310;2023-04-29T04:19:55;94047.28;;;6.54;81.73
28911;BME280;16028;42.642;23.310;2023-04-29T04:22:21;94037.03;;;6.52;81.87
28911;BME280;16028;42.642;23.310;2023-04-29T04:24:48;94046.19;;;6.56;81.68
28911;BME280;16028;42.642;23.310;2023-04-29T04:27:15;94044.84;;;6.73;78.69
28911;BME280;16028;42.642;23.310;2023-04-29T04:29:43;94046.16;;;6.67;78.63
28911;BME280;16028;42.642;23.310;2023-04-29T04:32:10;94045.47;;;6.65;79.41
28911;BME280;16028;42.642;23.310;2023-04-29T04:34:36;94041.69;;;6.69;79.92
28911;BME280;16028;42.642;23.310;2023-04-29T04:37:04;94036.97;;;6.74;79.86
28911;BME280;16028;42.642;23.310;2023-04-29T04:39:30;94041.53;;;6.82;81.12
28911;BME280;16028;42.642;23.310;2023-04-29T04:41:57;94051.53;;;6.96;80.57
28911;BME280;16028;42.642;23.310;2023-04-29T04:44:24;94048.97;;;6.96;79.73
28911;BME280;16028;42.642;23.310;2023-04-29T04:46:52;94049.09;;;6.95;79.45
28911;BME280;16028;42.642;23.310;2023-04-29T04:49:19;94051.28;;;6.99;79.86
28911;BME280;16028;42.642;23.310;2023-04-29T04:51:46;94061.84;;;7.07;79.63
28911;BME280;16028;42.642;23.310;2023-04-29T04:54:12;94060.50;;;7.13;79.25
28911;BME280;16028;42.642;23.310;2023-04-29T04:56:39;94051.75;;;7.25;80.03
28911;BME280;16028;42.642;23.310;2023-04-29T04:59:06;94048.16;;;7.37;78.90
28911;BME280;16028;42.642;23.310;2023-04-29T05:01:32;94051.03;;;7.43;79.18
28911;BME280;16028;42.642;23.310;2023-04-29T05:04:01;94038.81;;;7.45;78.83
28911;BME280;16028;42.642;23.310;2023-04-29T05:06:27;94040.72;;;7.53;79.21
28911;BME280;16028;42.642;23.310;2023-04-29T05:08:54;94035.38;;;7.66;78.72
28911;BME280;16028;42.642;23.310;2023-04-29T05:11:21;94025.72;;;7.77;77.50
28911;BME280;16028;42.642;23.310;2023-04-29T05:13:48;94028.72;;;7.82;78.00
28911;BME280;16028;42.642;23.310;2023-04-29T05:16:15;94022.66;;;7.93;76.30
28911;BME280;16028;42.642;23.310;2023-04-29T05:18:42;94018.63;;;8.10;74.50
28911;BME280;16028;42.642;23.310;2023-04-29T05:21:12;94020.91;;;8.03;74.77
28911;BME280;16028;42.642;23.310;2023-04-29T05:23:38;94020.66;;;8.06;75.83
28911;BME280;16028;42.642;23.310;2023-04-29T05:26:06;94009.88;;;8.11;76.30
28911;BME280;16028;42.642;23.310;2023-04-29T05:28:32;94012.63;;;8.19;75.73
28911;BME280;16028;42.642;23.310;2023-04-29T05:30:59;94015.91;;;8.21;75.13
28911;BME280;16028;42.642;23.310;2023-04-29T05:33:26;94005.53;;;8.21;75.42
28911;BME280;16028;42.642;23.310;2023-04-29T05:35:53;94001.22;;;8.31;75.01
28911;BME280;16028;42.642;23.310;2023-04-29T05:38:21;94006.69;;;8.37;74.69
28911;BME280;16028;42.642;23.310;2023-04-29T05:40:53;94005.59;;;8.49;72.12
28911;BME280;16028;42.642;23.310;2023-04-29T05:43:22;94007.09;;;8.62;71.88
28911;BME280;16028;42.642;23.310;2023-04-29T05:45:48;94008.47;;;8.56;73.03
28911;BME280;16028;42.642;23.310;2023-04-29T05:48:15;93997.72;;;8.61;73.57
28911;BME280;16028;42.642;23.310;2023-04-29T05:50:42;94003.84;;;8.69;72.45
28911;BME280;16028;42.642;23.310;2023-04-29T05:53:10;94010.97;;;8.77;70.90
28911;BME280;16028;42.642;23.310;2023-04-29T05:55:38;94009.44;;;8.84;71.77
28911;BME280;16028;42.642;23.310;2023-04-29T05:58:05;94021.59;;;8.93;70.11
28911;BME280;16028;42.642;23.310;2023-04-29T06:00:31;94018.19;;;9.02;69.22
28911;BME280;16028;42.642;23.310;2023-04-29T06:02:58;94018.84;;;9.04;69.33
28911;BME280;16028;42.642;23.310;2023-04-29T06:05:25;94017.06;;;9.04;71.55
28911;BME280;16028;42.642;23.310;2023-04-29T06:07:52;94015.13;;;9.16;69.92
28911;BME280;16028;42.642;23.310;2023-04-29T06:10:19;94021.69;;;9.20;69.12
28911;BME280;16028;42.642;23.310;2023-04-29T06:12:47;94013.34;;;9.26;69.88
28911;BME280;16028;42.642;23.310;2023-04-29T06:15:16;94009.13;;;9.25;69.77
28911;BME280;16028;42.642;23.310;2023-04-29T06:17:42;94007.84;;;9.39;68.87
28911;BME280;16028;42.642;23.310;2023-04-29T06:20:10;94007.94;;;9.66;68.68
28911;BME280;16028;42.642;23.310;2023-04-29T06:22:37;94007.06;;;9.75;69.31
28911;BME280;16028;42.642;23.310;2023-04-29T06:25:04;94003.81;;;10.00;68.34
28911;BME280;16028;42.642;23.310;2023-04-29T06:27:31;94013.38;;;10.54;67.31
28911;BME280;16028;42.642;23.310;2023-04-29T06:29:59;94007.22;;;10.73;66.03
28911;BME280;16028;42.642;23.310;2023-04-29T06:32:26;94010.53;;;11.01;62.24
28911;BME280;16028;42.642;23.310;2023-04-29T06:34:52;94012.41;;;11.26;60.19
28911;BME280;16028;42.642;23.310;2023-04-29T06:37:19;94010.19;;;11.39;60.28
28911;BME280;16028;42.642;23.310;2023-04-29T06:39:46;94011.81;;;11.40;58.20
28911;BME280;16028;42.642;23.310;2023-04-29T06:42:13;94016.78;;;11.26;58.51
28911;BME280;16028;42.642;23.310;2023-04-29T06:44:39;94016.88;;;10.98;58.17
28911;BME280;16028;42.642;23.310;2023-04-29T06:47:07;94012.63;;;10.80;59.80
28911;BME280;16028;42.642;23.310;2023-04-29T06:49:34;94002.78;;;10.66;61.21
28911;BME280;16028;42.642;23.310;2023-04-29T06:52:01;94010.50;;;10.75;59.53
28911;BME280;16028;42.642;23.310;2023-04-29T06:54:27;94013.06;;;11.10;58.80
28911;BME280;16028;42.642;23.310;2023-04-29T06:56:54;94006.25;;;11.09;58.30
28911;BME280;16028;42.642;23.310;2023-04-29T06:59:22;94010.53;;;11.19;57.33
28911;BME280;16028;42.642;23.310;2023-04-29T07:01:49;94002.81;;;11.09;57.26
28911;BME280;16028;42.642;23.310;2023-04-29T07:04:17;94003.72;;;11.00;58.99
28911;BME280;16028;42.642;23.310;2023-04-29T07:06:44;93998.03;;;11.04;57.84
28911;BME280;16028;42.642;23.310;2023-04-29T07:09:11;94005.97;;;11.21;60.65
28911;BME280;16028;42.642;23.310;2023-04-29T07:11:39;94000.44;;;11.15;59.37
28911;BME280;16028;42.642;23.310;2023-04-29T07:14:06;94003.56;;;11.19;56.61
28911;BME280;16028;42.642;23.310;2023-04-29T07:16:33;93993.06;;;11.11;57.87
28911;BME280;16028;42.642;23.310;2023-04-29T07:19:00;93993.88;;;11.11;58.58
28911;BME280;16028;42.642;23.310;2023-04-29T07:21:28;93993.25;;;11.35;54.59
28911;BME280;16028;42.642;23.310;2023-04-29T07:23:55;93998.56;;;11.26;56.01
28911;BME280;16028;42.642;23.310;2023-04-29T07:26:23;93986.84;;;11.30;57.58
28911;BME280;16028;42.642;23.310;2023-04-29T07:28:50;93997.31;;;11.38;56.92
28911;BME280;16028;42.642;23.310;2023-04-29T07:31:16;93999.41;;;11.34;57.26
28911;BME280;16028;42.642;23.310;2023-04-29T07:33:43;93997.84;;;11.41;57.43
28911;BME280;16028;42.642;23.310;2023-04-29T07:36:11;93998.50;;;11.43;58.07
28911;BME280;16028;42.642;23.310;2023-04-29T07:38:39;93997.03;;;11.41;56.43
28911;BME280;16028;42.642;23.310;2023-04-29T07:41:06;94003.19;;;11.40;57.55
28911;BME280;16028;42.642;23.310;2023-04-29T07:43:34;93993.34;;;11.51;55.56
28911;BME280;16028;42.642;23.310;2023-04-29T07:46:01;93995.47;;;11.56;58.19
28911;BME280;16028;42.642;23.310;2023-04-29T07:48:27;93989.50;;;11.63;56.37
28911;BME280;16028;42.642;23.310;2023-04-29T07:50:54;93990.69;;;11.95;55.36
28911;BME280;16028;42.642;23.310;2023-04-29T07:53:21;93987.81;;;12.06;53.63
28911;BME280;16028;42.642;23.310;2023-04-29T07:55:49;93979.00;;;12.07;53.08
28911;BME280;16028;42.642;23.310;2023-04-29T07:58:16;93972.63;;;12.01;55.52
28911;BME280;16028;42.642;23.310;2023-04-29T08:00:43;93974.06;;;11.96;53.89
28911;BME280;16028;42.642;23.310;2023-04-29T08:03:09;93971.91;;;12.25;51.32
28911;BME280;16028;42.642;23.310;2023-04-29T08:05:36;93963.72;;;12.20;52.23
28911;BME280;16028;42.642;23.310;2023-04-29T08:08:03;93971.22;;;12.23;53.88
28911;BME280;16028;42.642;23.310;2023-04-29T08:10:30;93972.06;;;12.32;53.95
28911;BME280;16028;42.642;23.310;2023-04-29T08:12:58;93977.53;;;12.62;50.99
28911;BME280;16028;42.642;23.310;2023-04-29T08:15:25;93968.88;;;12.62;52.35
28911;BME280;16028;42.642;23.310;2023-04-29T08:17:52;93979.03;;;12.73;50.08
28911;BME280;16028;42.642;23.310;2023-04-29T08:20:19;93966.59;;;12.83;48.35
28911;BME280;16028;42.642;23.310;2023-04-29T08:22:46;93958.00;;;12.83;51.74
28911;BME280;16028;42.642;23.310;2023-04-29T08:25:12;93966.28;;;13.02;49.30
28911;BME280;16028;42.642;23.310;2023-04-29T08:27:39;93956.69;;;13.27;48.24
28911;BME280;16028;42.642;23.310;2023-04-29T08:30:09;93959.44;;;13.42;47.81
28911;BME280;16028;42.642;23.310;2023-04-29T08:32:36;93954.72;;;13.45;49.85
28911;BME280;16028;42.642;23.310;2023-04-29T08:35:04;93967.94;;;13.52;46.94
28911;BME280;16028;42.642;23.310;2023-04-29T08:37:31;93961.06;;;13.59;46.07
28911;BME280;16028;42.642;23.310;2023-04-29T08:39:57;93960.41;;;13.49;48.34
28911;BME280;16028;42.642;23.310;2023-04-29T08:42:31;93962.22;;;13.48;48.21
28911;BME280;16028;42.642;23.310;2023-04-29T08:44:59;93961.84;;;13.67;47.09
28911;BME280;16028;42.642;23.310;2023-04-29T08:47:29;93952.78;;;13.86;45.74
28911;BME280;16028;42.642;23.310;2023-04-29T08:49:56;93950.97;;;13.95;45.55
28911;BME280;16028;42.642;23.310;2023-04-29T08:52:24;93948.41;;;14.17;43.52
28911;BME280;16028;42.642;23.310;2023-04-29T08:54:50;93938.91;;;14.24;43.22
28911;BME280;16028;42.642;23.310;2023-04-29T08:57:18;93934.66;;;14.23;43.28
28911;BME280;16028;42.642;23.310;2023-04-29T08:59:45;93928.34;;;14.10;42.52
28911;BME280;16028;42.642;23.310;2023-04-29T09:02:15;93942.41;;;14.09;43.87
28911;BME280;16028;42.642;23.310;2023-04-29T09:04:47;93940.63;;;14.09;45.20
28911;BME280;16028;42.642;23.310;2023-04-29T09:07:16;93935.78;;;14.29;41.35
28911;BME280;16028;42.642;23.310;2023-04-29T09:09:43;93932.00;;;14.31;45.22
28911;BME280;16028;42.642;23.310;2023-04-29T09:12:10;93932.00;;;14.31;47.50
28911;BME280;16028;42.642;23.310;2023-04-29T09:14:37;93929.31;;;14.48;43.30
28911;BME280;16028;42.642;23.310;2023-04-29T09:17:04;93936.78;;;14.59;41.72
28911;BME280;16028;42.642;23.310;2023-04-29T09:19:32;93925.72;;;14.71;41.79
28911;BME280;16028;42.642;23.310;2023-04-29T09:22:01;93922.59;;;14.76;41.96
28911;BME280;16028;42.642;23.310;2023-04-29T09:24:29;93930.44;;;14.76;42.92
28911;BME280;16028;42.642;23.310;2023-04-29T09:26:56;93926.72;;;14.70;42.10
28911;BME280;16028;42.642;23.310;2023-04-29T09:29:24;93926.72;;;14.70;42.22
28911;BME280;16028;42.642;23.310;2023-04-29T09:31:51;93915.66;;;15.06;41.41
28911;BME280;16028;42.642;23.310;2023-04-29T09:34:30;93913.88;;;15.35;43.03
28911;BME280;16028;42.642;23.310;2023-04-29T09:36:57;93913.81;;;15.44;42.04
28911;BME280;16028;42.642;23.310;2023-04-29T09:39:26;93915.69;;;15.35;43.43
28911;BME280;16028;42.642;23.310;2023-04-29T09:41:58;93911.19;;;15.44;43.17
28911;BME280;16028;42.642;23.310;2023-04-29T09:44:28;93905.38;;;15.56;41.58
28911;BME280;16028;42.642;23.310;2023-04-29T09:46:57;93904.53;;;15.56;40.61
28911;BME280;16028;42.642;23.310;2023-04-29T09:49:25;93896.75;;;15.48;41.68
28911;BME280;16028;42.642;23.310;2023-04-29T09:51:53;93896.97;;;15.38;42.69
28911;BME280;16028;42.642;23.310;2023-04-29T09:54:20;93893.31;;;15.47;43.18
28911;BME280;16028;42.642;23.310;2023-04-29T09:56:51;93896.22;;;15.52;43.54
28911;BME280;16028;42.642;23.310;2023-04-29T09:59:18;93885.19;;;15.71;42.21
28911;BME280;16028;42.642;23.310;2023-04-29T10:01:47;93888.44;;;15.88;42.08
28911;BME280;16028;42.642;23.310;2023-04-29T10:04:17;93881.03;;;15.92;41.91
28911;BME280;16028;42.642;23.310;2023-04-29T10:06:44;93871.69;;;16.04;40.93
28911;BME280;16028;42.642;23.310;2023-04-29T10:09:13;93868.25;;;16.03;40.08
28911;BME280;16028;42.642;23.310;2023-04-29T10:11:43;93863.97;;;16.02;41.75
28911;BME280;16028;42.642;23.310;2023-04-29T10:14:13;93862.25;;;16.24;42.21
28911;BME280;16028;42.642;23.310;2023-04-29T10:16:45;93851.00;;;16.30;40.89
28911;BME280;16028;42.642;23.310;2023-04-29T10:19:14;93854.59;;;16.29;40.22
28911;BME280;16028;42.642;23.310;2023-04-29T10:21:44;93855.06;;;16.18;40.17
28911;BME280;16028;42.642;23.310;2023-04-29T10:24:12;93854.09;;;16.19;42.12
28911;BME280;16028;42.642;23.310;2023-04-29T10:26:41;93845.66;;;16.23;41.35
28911;BME280;16028;42.642;23.310;2023-04-29T10:29:11;93854.63;;;16.50;39.87
28911;BME280;16028;42.642;23.310;2023-04-29T10:31:40;93854.16;;;16.61;39.74
28911;BME280;16028;42.642;23.310;2023-04-29T10:34:10;93849.91;;;16.60;39.01
28911;BME280;16028;42.642;23.310;2023-04-29T10:36:38;93844.56;;;16.54;41.82
28911;BME280;16028;42.642;23.310;2023-04-29T10:39:10;93852.72;;;16.80;39.02
28911;BME280;16028;42.642;23.310;2023-04-29T10:41:42;93857.53;;;16.76;39.57
28911;BME280;16028;42.642;23.310;2023-04-29T10:44:12;93855.56;;;16.85;39.66
28911;BME280;16028;42.642;23.310;2023-04-29T10:46:39;93849.31;;;16.86;38.92
28911;BME280;16028;42.642;23.310;2023-04-29T10:49:07;93852.78;;;16.86;40.26
28911;BME280;16028;42.642;23.310;2023-04-29T10:51:39;93849.88;;;17.03;38.14
28911;BME280;16028;42.642;23.310;2023-04-29T10:54:07;93841.56;;;16.99;38.49
28911;BME280;16028;42.642;23.310;2023-04-29T10:56:36;93843.69;;;17.10;37.28
28911;BME280;16028;42.642;23.310;2023-04-29T10:59:03;93847.97;;;17.18;40.29
28911;BME280;16028;42.642;23.310;2023-04-29T11:01:45;93841.50;;;17.20;38.59
28911;BME280;16028;42.642;23.310;2023-04-29T11:04:13;93841.16;;;17.30;37.60
28911;BME280;16028;42.642;23.310;2023-04-29T11:06:41;93841.53;;;17.27;38.65
28911;BME280;16028;42.642;23.310;2023-04-29T11:09:11;93840.38;;;17.36;36.85
28911;BME280;16028;42.642;23.310;2023-04-29T11:11:43;93841.22;;;17.36;37.10
28911;BME280;16028;42.642;23.310;2023-04-29T11:14:11;93842.84;;;17.37;35.41
28911;BME280;16028;42.642;23.310;2023-04-29T11:16:47;93833.81;;;17.19;38.34
28911;BME280;16028;42.642;23.310;2023-04-29T11:19:16;93842.66;;;17.11;38.51
28911;BME280;16028;42.642;23.310;2023-04-29T11:21:44;93831.19;;;17.19;37.31
28911;BME280;16028;42.642;23.310;2023-04-29T11:24:12;93837.41;;;17.11;37.11
28911;BME280;16028;42.642;23.310;2023-04-29T11:26:40;93839.03;;;17.12;37.75
28911;BME280;16028;42.642;23.310;2023-04-29T11:29:08;93834.53;;;17.06;37.29
28911;BME280;16028;42.642;23.310;2023-04-29T11:31:35;93836.13;;;17.01;39.51
28911;BME280;16028;42.642;23.310;2023-04-29T11:34:05;93832.47;;;17.02;38.43
28911;BME280;16028;42.642;23.310;2023-04-29T11:36:32;93833.28;;;17.02;37.82
28911;BME280;16028;42.642;23.310;2023-04-29T11:39:00;93831.56;;;17.16;35.31
28911;BME280;16028;42.642;23.310;2023-04-29T11:41:28;93830.16;;;17.13;34.29
28911;BME280;16028;42.642;23.310;2023-04-29T11:43:56;93834.16;;;17.09;35.60
28911;BME280;16028;42.642;23.310;2023-04-29T11:46:24;93827.16;;;16.95;36.67
28911;BME280;16028;42.642;23.310;2023-04-29T11:48:53;93834.06;;;16.96;35.64
28911;BME280;16028;42.642;23.310;2023-04-29T11:51:21;93829.50;;;16.83;36.51
28911;BME280;16028;42.642;23.310;2023-04-29T11:53:48;93833.38;;;16.87;35.90
28911;BME280;16028;42.642;23.310;2023-04-29T11:56:15;93831.81;;;16.93;35.40
28911;BME280;16028;42.642;23.310;2023-04-29T11:58:41;93822.22;;;16.85;36.15
28911;BME280;16028;42.642;23.310;2023-04-29T12:01:09;93836.34;;;16.78;36.37
28911;BME280;16028;42.642;23.310;2023-04-29T12:03:36;93829.69;;;16.82;36.54
28911;BME280;16028;42.642;23.310;2023-04-29T12:06:03;93830.38;;;16.69;37.15
28911;BME280;16028;42.642;23.310;2023-04-29T12:08:31;93827.44;;;16.79;37.18
28911;BME280;16028;42.642;23.310;2023-04-29T12:10:59;93826.09;;;16.62;39.13
28911;BME280;16028;42.642;23.310;2023-04-29T12:13:30;93823.75;;;16.52;38.96
28911;BME280;16028;42.642;23.310;2023-04-29T12:15:57;93822.44;;;16.63;38.18
28911;BME280;16028;42.642;23.310;2023-04-29T12:18:24;93821.13;;;16.52;38.43
28911;BME280;16028;42.642;23.310;2023-04-29T12:20:52;93821.00;;;16.39;38.98
28911;BME280;16028;42.642;23.310;2023-04-29T12:23:21;93816.50;;;16.33;40.25
28911;BME280;16028;42.642;23.310;2023-04-29T12:25:51;93813.94;;;16.39;42.99
28911;BME280;16028;42.642;23.310;2023-04-29T12:28:19;93815.16;;;16.58;42.30
28911;BME280;16028;42.642;23.310;2023-04-29T12:30:46;93806.97;;;16.53;43.14
28911;BME280;16028;42.642;23.310;2023-04-29T12:33:18;93807.34;;;16.50;42.95
28911;BME280;16028;42.642;23.310;2023-04-29T12:35:46;93802.75;;;16.52;42.72
28911;BME280;16028;42.642;23.310;2023-04-29T12:38:15;93802.50;;;16.68;41.04
28911;BME280;16028;42.642;23.310;2023-04-29T12:40:43;93804.59;;;16.79;39.32
28911;BME280;16028;42.642;23.310;2023-04-29T12:43:11;93811.94;;;16.63;42.64
28911;BME280;16028;42.642;23.310;2023-04-29T12:45:38;93801.19;;;16.58;43.76
28911;BME280;16028;42.642;23.310;2023-04-29T12:48:05;93806.25;;;16.80;40.78
28911;BME280;16028;42.642;23.310;2023-04-29T12:50:33;93804.88;;;16.84;41.31
28911;BME280;16028;42.642;23.310;2023-04-29T12:53:01;93802.84;;;16.86;41.64
28911;BME280;16028;42.642;23.310;2023-04-29T12:55:28;93802.38;;;16.76;42.55
28911;BME280;16028;42.642;23.310;2023-04-29T12:57:54;93804.44;;;16.81;40.97